createdAt,value
2019-06-07T00:02:25.717Z,45.78
2019-06-07T00:07:29.593Z,45.78
2019-06-07T00:12:33.374Z,46.42
2019-06-07T00:17:37.171Z,47.05
2019-06-07T00:22:40.996Z,47.12
2019-06-07T00:27:44.836Z,46.85
2019-06-07T00:32:48.618Z,47.21
2019-06-07T00:37:52.389Z,46.89
2019-06-07T00:42:56.150Z,47.10
2019-06-07T00:48:00.081Z,47.10
2019-06-07T00:53:29.152Z,46.76
2019-06-07T00:58:09.415Z,46.76
2019-06-07T01:03:14.853Z,47.84
2019-06-07T01:08:21.568Z,47.84
2019-06-07T01:13:26.766Z,47.76
2019-06-07T01:18:38.440Z,48.17
2019-06-07T01:24:05.515Z,47.91
2019-06-07T01:28:41.290Z,47.91
2019-06-07T01:33:50.780Z,48.05
2019-06-07T01:38:50.749Z,48.35
2019-06-07T01:43:54.675Z,48.35
2019-06-07T01:48:58.454Z,47.82
2019-06-07T01:54:48.672Z,48.54
2019-06-07T01:59:08.058Z,49.28
2019-06-07T02:04:11.941Z,48.24
2019-06-07T02:09:15.816Z,48.24
2019-06-07T02:14:22.301Z,48.30
2019-06-07T02:19:27.463Z,47.80
2019-06-07T02:24:34.628Z,48.47
2019-06-07T02:29:36.371Z,48.95
2019-06-07T02:34:40.242Z,48.80
2019-06-07T02:39:44.030Z,48.80
2019-06-07T02:44:47.798Z,48.40
2019-06-07T02:49:51.738Z,48.84
2019-06-07T02:54:55.578Z,50.13
2019-06-07T03:00:16.634Z,49.25
2019-06-07T03:05:05.138Z,50.06
2019-06-07T03:10:09.829Z,49.53
2019-06-07T03:15:31.981Z,50.10
2019-06-07T03:20:20.607Z,49.64
2019-06-07T03:25:25.737Z,50.07
2019-06-07T03:30:48.630Z,49.60
2019-06-07T03:35:37.344Z,49.66
2019-06-07T03:40:40.743Z,50.01
2019-06-07T03:45:44.619Z,49.49
2019-06-07T03:51:03.851Z,49.61
2019-06-07T03:55:53.861Z,51.86
2019-06-07T04:01:01.978Z,53.75
2019-06-07T04:06:03.156Z,53.75
2019-06-07T04:11:06.913Z,54.93
2019-06-07T04:16:10.721Z,55.44
2019-06-07T04:21:14.547Z,55.90
2019-06-07T04:26:18.324Z,56.45
2019-06-07T04:31:22.240Z,56.93
2019-06-07T04:36:44.288Z,56.93
2019-06-07T04:41:33.555Z,57.29
2019-06-07T04:46:40.804Z,56.97
2019-06-07T04:51:42.726Z,57.04
2019-06-07T04:56:46.497Z,56.54
2019-06-07T05:01:50.265Z,57.75
2019-06-07T05:06:54.102Z,57.75
2019-06-07T05:11:57.918Z,57.80
2019-06-07T05:17:01.684Z,57.80
2019-06-07T05:22:05.593Z,58.54
2019-06-07T05:27:09.387Z,58.07
2019-06-07T05:32:13.376Z,57.90
2019-06-07T05:37:17.151Z,58.08
2019-06-07T05:42:20.928Z,58.44
2019-06-07T05:47:25.402Z,57.98
2019-06-07T05:52:29.348Z,57.96
2019-06-07T05:57:36.340Z,57.85
2019-06-07T06:02:58.708Z,57.85
2019-06-07T06:07:49.972Z,57.73
2019-06-07T06:12:51.653Z,57.27
2019-06-07T06:17:55.139Z,56.20
2019-06-07T06:22:58.964Z,57.20
2019-06-07T06:28:11.122Z,57.20
2019-06-07T06:33:27.068Z,54.46
2019-06-07T06:38:13.774Z,53.23
2019-06-07T06:43:17.567Z,54.20
2019-06-07T06:48:21.499Z,54.02
2019-06-07T06:53:25.292Z,54.08
2019-06-07T06:58:29.052Z,54.08
2019-06-07T07:04:09.551Z,53.81
2019-06-07T07:08:38.320Z,54.30
2019-06-07T07:13:44.482Z,54.33
2019-06-07T07:18:51.224Z,54.46
2019-06-07T07:24:19.513Z,54.34
2019-06-07T07:28:58.577Z,54.34
2019-06-07T07:39:07.907Z,54.34
2019-06-07T07:44:11.721Z,54.95
2019-06-07T07:49:15.495Z,54.95
2019-06-07T07:54:19.292Z,54.91
2019-06-07T07:59:41.121Z,53.36
2019-06-07T08:05:12.375Z,51.40
2019-06-07T08:09:34.296Z,51.40
2019-06-07T08:14:38.060Z,51.01
2019-06-07T08:19:41.842Z,49.87
2019-06-07T08:24:45.610Z,50.78
2019-06-07T08:30:10.221Z,50.50
2019-06-07T08:34:59.792Z,49.64
2019-06-07T08:40:01.814Z,49.46
2019-06-07T08:45:07.087Z,49.46
2019-06-07T08:50:10.948Z,48.16
2019-06-07T08:55:14.762Z,48.71
2019-06-07T09:00:43.356Z,49.40
2019-06-07T09:05:25.371Z,49.40
2019-06-07T09:10:29.221Z,48.54
2019-06-07T09:15:32.990Z,49.47
2019-06-07T09:20:47.698Z,49.68
2019-06-07T09:26:01.018Z,48.56
2019-06-07T09:30:57.883Z,48.07
2019-06-07T09:36:09.222Z,48.53
2019-06-07T09:41:09.642Z,47.88
2019-06-07T09:46:16.285Z,47.88
2019-06-07T09:51:20.543Z,47.00
2019-06-07T09:56:24.759Z,46.72
2019-06-07T10:01:28.546Z,47.37
2019-06-07T10:06:32.334Z,47.37
2019-06-07T10:11:36.116Z,46.84
2019-06-07T10:16:48.026Z,46.53
2019-06-07T10:21:45.403Z,46.53
2019-06-07T10:26:49.166Z,47.28
2019-06-07T10:31:53.003Z,47.66
2019-06-07T10:36:56.821Z,46.99
2019-06-07T10:42:00.939Z,46.63
2019-06-07T10:47:06.060Z,46.63
2019-06-07T10:52:11.519Z,46.88
2019-06-07T11:13:33.719Z,47.19
2019-06-07T11:18:37.505Z,46.89
2019-06-07T11:23:41.279Z,46.89
2019-06-07T11:28:45.082Z,46.84
2019-06-07T12:11:16.366Z,45.65
2019-06-07T12:16:20.511Z,45.65
2019-06-07T12:21:24.313Z,46.17
2019-06-07T12:26:28.134Z,46.15
2019-06-07T12:31:31.973Z,46.53
2019-06-07T12:36:35.741Z,45.93
2019-06-07T12:41:39.520Z,46.04
2019-06-07T12:46:43.295Z,46.04
2019-06-07T12:51:47.086Z,46.47
2019-06-07T12:56:52.439Z,46.47
2019-06-07T13:02:01.834Z,46.46
2019-06-07T13:07:02.028Z,46.18
2019-06-07T13:12:05.809Z,46.32
2019-06-07T13:17:09.608Z,46.32
2019-06-07T13:22:13.405Z,46.59
2019-06-07T13:27:18.278Z,46.59
2019-06-07T13:32:22.227Z,46.28
2019-06-07T13:37:26.034Z,46.28
2019-06-07T13:42:29.969Z,46.51
2019-06-07T13:47:33.867Z,46.66
2019-06-07T13:52:37.848Z,47.05
2019-06-07T13:57:41.687Z,46.70
2019-06-07T14:02:45.538Z,46.70
2019-06-07T14:07:49.392Z,47.03
2019-06-07T14:12:53.241Z,46.53
2019-06-07T14:17:57.041Z,47.18
2019-06-07T14:23:00.864Z,47.21
2019-06-07T14:28:11.019Z,46.68
2019-06-07T14:33:10.377Z,47.09
2019-06-07T14:38:14.136Z,46.60
2019-06-07T14:43:17.933Z,46.60
2019-06-07T14:48:21.718Z,47.10
2019-06-07T14:53:26.589Z,47.12
2019-06-07T14:58:31.732Z,47.35
2019-06-07T15:03:35.623Z,47.09
2019-06-07T15:08:39.394Z,46.56
2019-06-07T15:13:43.169Z,47.34
2019-06-07T15:18:47.300Z,47.51
2019-06-07T15:23:51.107Z,47.51
2019-06-07T15:28:54.858Z,47.43
2019-06-07T15:33:58.653Z,46.98
2019-06-07T15:39:02.439Z,47.40
2019-06-07T15:44:06.191Z,47.50
2019-06-07T15:49:09.989Z,47.50
2019-06-07T15:54:13.764Z,47.61
2019-06-07T15:59:17.545Z,47.16
2019-06-07T16:04:21.354Z,47.69
2019-06-07T16:09:25.128Z,47.61
2019-06-07T16:14:28.908Z,47.18
2019-06-07T16:19:34.308Z,47.99
2019-06-07T16:24:38.283Z,48.10
2019-06-07T16:29:42.759Z,48.10
2019-06-07T16:34:46.685Z,47.72
2019-06-07T16:39:50.443Z,47.67
2019-06-07T16:44:54.287Z,47.28
2019-06-07T16:49:58.059Z,47.62
2019-06-07T16:55:01.987Z,47.26
2019-06-07T17:00:06.331Z,46.72
2019-06-07T17:05:10.169Z,46.44
2019-06-07T17:10:14.022Z,46.82
2019-06-07T17:15:17.916Z,46.77
2019-06-07T17:20:23.338Z,46.77
2019-06-07T17:25:27.128Z,46.80
2019-06-07T17:30:30.980Z,46.80
2019-06-07T17:35:34.750Z,46.15
2019-06-07T17:40:38.608Z,46.59
2019-06-07T17:45:43.461Z,46.59
2019-06-07T17:50:47.821Z,46.87
2019-06-07T17:55:52.394Z,46.61
2019-06-07T18:00:56.246Z,46.59
2019-06-07T18:06:00.095Z,47.02
2019-06-07T18:11:04.404Z,47.04
2019-06-07T18:16:08.189Z,47.06
2019-06-07T18:21:12.031Z,46.89
2019-06-07T18:26:16.023Z,46.62
2019-06-07T18:31:19.859Z,46.77
2019-06-07T18:36:23.637Z,47.46
2019-06-07T18:41:27.413Z,47.52
2019-06-07T18:46:31.189Z,47.52
2019-06-07T18:51:35.045Z,46.93
2019-06-07T18:56:38.841Z,47.03
2019-06-07T19:01:42.690Z,47.20
2019-06-07T19:06:46.486Z,46.88
2019-06-07T19:11:50.895Z,47.76
2019-06-07T19:16:55.584Z,48.00
2019-06-07T19:22:00.164Z,48.00
2019-06-07T19:27:04.467Z,47.84
2019-06-07T19:32:08.411Z,48.30
2019-06-07T19:37:12.192Z,48.08
2019-06-07T19:42:15.970Z,48.08
2019-06-07T19:47:19.748Z,48.28
2019-06-07T19:52:23.509Z,48.27
2019-06-07T19:57:27.310Z,47.99
2019-06-07T20:02:31.094Z,47.87
2019-06-07T20:07:34.886Z,47.87
2019-06-07T20:12:39.623Z,48.18
2019-06-07T20:17:43.695Z,48.01
2019-06-07T20:22:47.469Z,48.01
2019-06-07T20:27:51.232Z,48.59
2019-06-07T20:32:55.192Z,48.19
2019-06-07T20:37:59.062Z,48.19
2019-06-07T20:43:03.521Z,48.44
2019-06-07T20:48:08.448Z,48.70
2019-06-07T20:53:12.488Z,49.09
2019-06-07T20:58:16.351Z,48.64
2019-06-07T21:03:20.143Z,48.60
2019-06-07T21:08:24.014Z,48.71
2019-06-07T21:13:28.135Z,48.64
2019-06-07T21:18:31.935Z,48.87
2019-06-07T21:23:35.777Z,48.78
2019-06-07T21:28:39.943Z,48.78
2019-06-07T21:33:43.933Z,48.98
2019-06-07T21:38:47.805Z,48.93
2019-06-07T21:43:51.597Z,48.73
2019-06-07T21:48:55.643Z,48.73
2019-06-07T21:53:59.442Z,48.59
2019-06-07T21:59:03.430Z,48.78
2019-06-07T22:04:07.545Z,48.78
2019-06-07T22:09:12.425Z,48.84
2019-06-07T22:14:16.251Z,49.10
2019-06-07T22:19:20.028Z,48.96
2019-06-07T22:24:23.813Z,48.96
2019-06-07T22:29:27.584Z,48.83
2019-06-07T22:34:31.440Z,48.99
2019-06-07T22:39:35.212Z,48.99
2019-06-07T22:44:40.269Z,49.37
2019-06-07T22:49:44.067Z,49.46
2019-06-07T22:54:47.848Z,49.49
2019-06-07T22:59:51.608Z,49.49
2019-06-07T23:04:55.482Z,48.52
2019-06-07T23:09:59.277Z,48.32
2019-06-07T23:15:03.078Z,48.32
2019-06-07T23:20:07.456Z,48.29
2019-06-07T23:25:12.233Z,48.38
2019-06-07T23:30:18.596Z,48.38
2019-06-07T23:35:22.873Z,48.54
2019-06-07T23:40:26.673Z,48.49
2019-06-07T23:45:30.505Z,48.49
2019-06-07T23:50:34.274Z,48.38
2019-06-07T23:55:38.086Z,48.19
